METAR Data
IDs: Format: Raw Decoded Include TAF

Data at: 1249 UTC 17 Aug 2019

KCXW 171235Z AUTO 16003KT 10SM CLR 25/22 A2994 RMK A01
KCXW 171215Z AUTO 15005KT 10SM CLR 24/22 A2994 RMK A01
KCXW 171155Z AUTO 00000KT 10SM CLR 23/21 A2994 RMK A01
KCXW 171135Z AUTO 15007KT 10SM CLR 24/21 A2994 RMK A01
KCXW 171115Z AUTO 16005KT 10SM CLR 23/21 A2994 RMK A01
KCXW 171055Z AUTO 16006KT 10SM CLR 24/21 A2992 RMK A01
KCXW 171035Z AUTO 14005KT 10SM CLR 24/21 A2992 RMK A01
KCXW 171015Z AUTO 15004KT 10SM CLR 24/21 A2991 RMK A01
KCXW 170955Z AUTO 00000KT 10SM CLR 25/21 A2992 RMK A01
KCXW 170935Z AUTO 00000KT 10SM CLR 24/21 A2991 RMK A01
KCXW 170915Z AUTO 00000KT 10SM CLR 24/21 A2990 RMK A01
KCXW 170855Z AUTO 00000KT 10SM CLR 25/21 A2989 RMK A01
KCXW 170835Z AUTO 00000KT 10SM CLR 25/21 A2988 RMK A01
KCXW 170815Z AUTO 00000KT 10SM CLR 25/21 A2989 RMK A01
KCXW 170755Z AUTO 00000KT 10SM CLR 25/21 A2990 RMK A01
KCXW 170735Z AUTO 14004KT 10SM CLR 24/22 A2990 RMK A01
KCXW 170715Z AUTO 00000KT 10SM CLR 25/22 A2991 RMK A01
KCXW 170655Z AUTO 00000KT 10SM CLR 25/21 A2992 RMK A01
KCXW 170635Z AUTO 00000KT 10SM FEW036 FEW046 25/21 A2992 RMK A01
KCXW 170615Z AUTO 00000KT 10SM FEW039 SCT045 26/22 A2993 RMK A01
KCXW 170555Z AUTO 00000KT 10SM FEW044 26/21 A2993 RMK A01
KCXW 170535Z AUTO 00000KT 10SM CLR 26/22 A2992 RMK A01
KCXW 170515Z AUTO 00000KT 10SM CLR 26/22 A2991 RMK A01
KCXW 170455Z AUTO 15005KT 10SM CLR 26/22 A2991 RMK A01
KCXW 170435Z AUTO 15006KT 10SM CLR 26/22 A2991 RMK A01
KCXW 170415Z AUTO 16008KT 10SM CLR 26/22 A2991 RMK A01
KCXW 170355Z AUTO 16003KT 10SM CLR 27/22 A2991 RMK A01
KCXW 170335Z AUTO 00000KT 9SM CLR 27/23 A2991 RMK A01
KCXW 170315Z AUTO 15003KT 10SM CLR 27/22 A2990 RMK A01
KCXW 170255Z AUTO 16006KT 10SM CLR 27/23 A2989 RMK A01
KCXW 170235Z AUTO 16005KT 10SM CLR 27/23 A2988 RMK A01
KCXW 170215Z AUTO 10SM CLR 28/22 A2989 RMK A01
KCXW 170155Z AUTO VRB04G11KT 8SM CLR 28/22 A2988 RMK A01
KCXW 170135Z AUTO 18004KT 10SM CLR 28/24 A2988 RMK A01
KCXW 170115Z AUTO 18005KT 3SM HZ CLR 29/24 A2989 RMK A01
KCXW 170055Z AUTO 00000KT 1 1/4SM HZ CLR 30/23 A2989 RMK A01
KCXW 170035Z AUTO 13003KT 6SM HZ CLR 31/24 A2989 RMK A01
KCXW 170015Z AUTO 15005KT 10SM CLR 32/24 A2989 RMK A01
KCXW 162355Z AUTO 15005KT 10SM CLR 33/24 A2989 RMK A01
KCXW 162335Z AUTO 15006KT 8SM CLR 33/23 A2989 RMK A01
KCXW 162315Z AUTO 16007KT 10SM CLR 34/23 A2989 RMK A01
KCXW 162255Z AUTO 17007KT 7SM CLR 34/23 A2989 RMK A01
KCXW 162235Z AUTO 17007KT 7SM CLR 34/23 A2990 RMK A01
KCXW 162215Z AUTO 18008KT 5SM HZ CLR 34/23 A2990 RMK A01
KCXW 162155Z AUTO 16006KT 6SM HZ CLR 34/23 A2991 RMK A01
KCXW 162135Z AUTO 19006KT 6SM HZ CLR 35/22 A2992 RMK A01
KCXW 162115Z AUTO VRB04KT 4SM HZ CLR 35/22 A2992 RMK A01
KCXW 162055Z AUTO 00000KT 7SM CLR 34/22 A2993 RMK A01
KCXW 162035Z AUTO 19006KT 5SM HZ CLR 35/22 A2993 RMK A01
KCXW 162015Z AUTO 17006KT 7SM CLR 34/22 A2993 RMK A01
KCXW 161955Z AUTO 18006KT 10SM CLR 34/22 A2994 RMK A01
KCXW 161935Z AUTO 19005KT 6SM HZ CLR 34/22 A2996 RMK A01
KCXW 161915Z AUTO 00000KT 7SM CLR 34/22 A2997 RMK A01
KCXW 161855Z AUTO VRB03KT 9SM CLR 34/22 A2998 RMK A01
KCXW 161835Z AUTO 27004KT 10SM CLR 33/21 A2999 RMK A01
KCXW 161815Z AUTO 29004KT 10SM CLR 33/21 A3001 RMK A01
KCXW 161755Z AUTO VRB04KT 10SM CLR 33/22 A3001 RMK A01
KCXW 161735Z AUTO VRB03KT 10SM CLR 32/22 A3002 RMK A01
KCXW 161715Z AUTO VRB04KT 10SM CLR 32/22 A3002 RMK A01
KCXW 161655Z AUTO VRB05KT 10SM CLR 32/22 A3003 RMK A01
KCXW 161635Z AUTO 19004KT 8SM CLR 32/22 A3004 RMK A01
KCXW 161615Z AUTO VRB03KT 10SM CLR 31/23 A3004 RMK A01
KCXW 161555Z AUTO 00000KT 10SM CLR 31/23 A3004 RMK A01
KCXW 161535Z AUTO 00000KT 7SM FEW060 30/23 A3004 RMK A01
KCXW 161515Z AUTO 00000KT 10SM FEW060 29/23 A3004 RMK A01
KCXW 161455Z AUTO 00000KT 10SM CLR 29/22 A3004 RMK A01
KCXW 161435Z AUTO 00000KT 10SM CLR 29/23 A3004 RMK A01
KCXW 161415Z AUTO 03004KT 10SM CLR 28/23 A3003 RMK A01
KCXW 161355Z AUTO 00000KT 10SM 27/23 A3002 RMK A01
KCXW 161335Z AUTO 10SM 26/24 A3002 RMK A01
KCXW 161315Z AUTO 00000KT 9SM CLR 26/23 A3002 RMK A01
KCXW 161255Z AUTO 00000KT 9SM CLR 25/23 A3001 RMK A01
KCXW 161235Z AUTO 00000KT 8SM CLR 23/23 A3000 RMK A01
KCXW 161215Z AUTO 04005KT 7SM CLR 23/22 A3000 RMK A01
KCXW 161155Z AUTO 00000KT 7SM CLR 22/22 A2999 RMK A01
KCXW 161135Z AUTO 00000KT 7SM 22/22 A2998 RMK A01
KCXW 161115Z AUTO 01004KT 9SM 23/22 A2997 RMK A01
KCXW 161055Z AUTO 02004KT 10SM CLR 23/22 A2997 RMK A01
KCXW 161035Z AUTO 36004KT 10SM CLR 23/22 A2996 RMK A01
KCXW 161015Z AUTO 15005KT 10SM CLR 23/23 A2995 RMK A01
KCXW 160955Z AUTO 19004KT 9SM CLR 23/22 A2995 RMK A01
KCXW 160935Z AUTO 18003KT 10SM CLR 24/23 A2996 RMK A01
KCXW 160915Z AUTO 09004KT 9SM CLR 23/23 A2995 RMK A01
KCXW 160855Z AUTO 04006KT 8SM CLR 23/23 A2996 RMK A01
KCXW 160835Z AUTO 00000KT 10SM 24/23 A2996 RMK A01
KCXW 160815Z AUTO 00000KT 10SM 24/23 A2995 RMK A01
KCXW 160755Z AUTO 00000KT 10SM 24/23 A2995 RMK A01
KCXW 160735Z AUTO 00000KT 10SM CLR 24/23 A2995 RMK A01
KCXW 160715Z AUTO 00000KT 10SM 24/23 A2995 RMK A01
KCXW 160655Z AUTO 00000KT 10SM 25/23 A2996 RMK A01
KCXW 160635Z AUTO 17003KT 10SM 25/24 A2996 RMK A01
KCXW 160615Z AUTO 00000KT 10SM 25/24 A2997 RMK A01
KCXW 160555Z AUTO 00000KT 10SM FEW050 25/24 A2997 RMK A01
KCXW 160535Z AUTO 05005KT 10SM 25/23 A2997 RMK A01
KCXW 160515Z AUTO 01003KT 10SM 26/24 A2997 RMK A01
KCXW 160455Z AUTO 00000KT 10SM FEW050 26/24 A2996 RMK A01
KCXW 160435Z AUTO 00000KT 10SM 26/24 A2996 RMK A01
KCXW 160415Z AUTO 18004KT 10SM 26/24 A2995 RMK A01
KCXW 160355Z AUTO 00000KT 10SM FEW040 FEW049 26/24 A2995 RMK A01
KCXW 160335Z AUTO 17005KT 10SM 27/24 A2995 RMK A01
KCXW 160315Z AUTO 16006KT 10SM 27/24 A2996 RMK A01
KCXW 160255Z AUTO 17003KT 10SM 26/24 A2996 RMK A01
KCXW 160235Z AUTO 20003KT 10SM 27/24 A2996 RMK A01
KCXW 160215Z AUTO 00000KT 10SM 27/24 A2997 RMK A01
KCXW 160155Z AUTO 17003KT 5SM HZ 27/24 A2996 RMK A01
KCXW 160135Z AUTO 16003KT 7SM CLR 28/23 A2996 RMK A01
KCXW 160115Z AUTO 11005KT 9SM CLR 29/23 A2995 RMK A01
KCXW 160055Z AUTO 10009KT 9SM CLR 29/23 A2995 RMK A01